This is the latest recevied weather packets stored in our database for station/object N3WPH. If no packets are shown the sender has not sent any weather packets the latest 10 day(s).
| Time | Temp. | Humidity | Pressure | Rain* | Wind** | Luminosity | Snow |
|---|---|---|---|---|---|---|---|
| 1777980014 | 17.22° C | 64% | 1009.4 hPa | 0 mm | - | 52 W/m² | - |
| 1777979708 | 17.22° C | 64% | 1009.3 hPa | 0 mm | - | 53 W/m² | - |
| 1777979405 | 16.67° C | 65% | 1009.4 hPa | 0 mm | - | 47 W/m² | - |
| 1777979101 | 16.11° C | 69% | 1009.4 hPa | 0 mm | - | 44 W/m² | - |
| 1777978798 | 16.11° C | 70% | 1009.4 hPa | 0 mm | - | 41 W/m² | - |
| 1777978495 | 16.11° C | 69% | 1009.4 hPa | 0 mm | - | 40 W/m² | - |
| 1777978191 | 16.11° C | 69% | 1009.2 hPa | 0 mm | - | 36 W/m² | - |
| 1777977888 | 16.11° C | 69% | 1009 hPa | 0 mm | - | 37 W/m² | - |
| 1777977584 | 16.11° C | 68% | 1009.1 hPa | 0 mm | - | 32 W/m² | - |
| 1777977282 | 15.56° C | 68% | 1009.2 hPa | 0 mm | - | 25 W/m² | - |
| 1777976979 | 15.56° C | 68% | 1009.1 hPa | 0 mm | - | 20 W/m² | - |
| 1777976676 | 15.56° C | 68% | 1009 hPa | 0 mm | - | 17 W/m² | - |
| 1777976374 | 14.44° C | 72% | 1008.9 hPa | 0 mm | - | 13 W/m² | - |
| 1777976073 | 14.44° C | 74% | 1008.9 hPa | 0 mm | - | 10 W/m² | - |
| 1777975769 | 13.89° C | 74% | 1008.7 hPa | 0 mm | - | 7 W/m² | - |
| 1777975466 | 13.89° C | 75% | 1009 hPa | 0 mm | - | 5 W/m² | - |
| 1777975161 | 14.44° C | 72% | 1008.9 hPa | 0 mm | - | 3 W/m² | - |
| 1777974859 | 14.44° C | 71% | 1009 hPa | 0 mm | - | 2 W/m² | - |
| 1777974555 | 15° C | 70% | 1008.8 hPa | 0 mm | - | 1 W/m² | - |
| 1777974252 | 15° C | 69% | 1008.9 hPa | 0 mm | - | 0 W/m² | - |
| 1777973948 | 15° C | 69% | 1008.7 hPa | 0 mm | - | 0 W/m² | - |
| 1777973645 | 15° C | 68% | 1008.8 hPa | 0 mm | - | 0 W/m² | - |
| 1777973342 | 15° C | 68% | 1008.8 hPa | 0 mm | - | 0 W/m² | - |
| 1777973040 | 15.56° C | 67% | 1008.8 hPa | 0 mm | - | 0 W/m² | - |
| 1777972737 | 15.56° C | 68% | 1008.6 hPa | 0 mm | - | 0 W/m² | - |
* Rain latest hour (hover to see other rain measurements)
** Current wind speed in m/s (hover to see current wind gust speed)